Time;durP1;ratioP1;P1;durP2;ratioP2;P2;SDS_P1;SDS_P2;PMS_P1;PMS_P2;Temp;Humidity;BMP_temperature;BMP_pressure;BME280_temperature;BME280_humidity;BME280_pressure;Samples;Min_cycle;Max_cycle;Signal;HPM_P1;HPM_P2
2023/04/14 00:01:18;;;;;;;11.20;5.97;;;;;;;2.62;100.00;100873.88;4975642;28;20538;-79
2023/04/14 00:03:44;;;;;;;11.20;6.07;;;;;;;2.50;100.00;100859.78;4975867;28;20026;-77
2023/04/14 00:06:09;;;;;;;14.60;6.65;;;;;;;2.57;100.00;100869.78;4975566;28;20043;-76
2023/04/14 00:08:34;;;;;;;11.80;6.28;;;;;;;2.10;100.00;100801.50;4975703;28;20027;-76
2023/04/14 00:11:00;;;;;;;9.27;5.97;;;;;;;2.50;100.00;100875.09;4975520;28;20034;-76
2023/04/14 00:13:26;;;;;;;10.60;5.82;;;;;;;2.39;100.00;100856.72;4975686;28;20488;-78
2023/04/14 00:15:52;;;;;;;12.15;6.38;;;;;;;2.29;100.00;100853.59;4975340;28;20085;-76
2023/04/14 00:18:17;;;;;;;14.48;6.78;;;;;;;2.41;100.00;100877.91;4975467;28;20361;-76
2023/04/14 00:20:42;;;;;;;12.05;6.70;;;;;;;2.20;100.00;100851.31;4975342;28;20066;-76
2023/04/14 00:23:08;;;;;;;14.77;6.45;;;;;;;2.26;100.00;100866.41;4975468;28;20031;-75
2023/04/14 00:25:33;;;;;;;12.27;5.97;;;;;;;2.29;100.00;100876.53;4975376;28;20395;-77
2023/04/14 00:27:58;;;;;;;12.23;5.82;;;;;;;2.09;100.00;100854.16;4957713;28;20547;-76
2023/04/14 00:30:24;;;;;;;12.45;6.20;;;;;;;2.02;100.00;100852.66;4975065;28;20038;-76
2023/04/14 00:32:49;;;;;;;12.77;6.05;;;;;;;1.95;100.00;100836.69;4975216;28;20115;-76
2023/04/14 00:35:15;;;;;;;12.63;5.88;;;;;;;2.10;100.00;100870.28;4974631;28;20033;-76
2023/04/14 00:37:40;;;;;;;14.40;6.20;;;;;;;2.17;100.00;100876.88;4975144;28;20039;-76
2023/04/14 00:40:07;;;;;;;9.95;5.80;;;;;;;2.15;100.00;100888.81;4975049;28;20023;-77
2023/04/14 00:42:43;;;;;;;10.23;5.68;;;;;;;2.10;100.00;100880.47;4974392;28;20034;-77
2023/04/14 00:45:09;;;;;;;11.23;5.78;;;;;;;2.09;100.00;100883.91;4974998;28;20023;-75
2023/04/14 00:47:36;;;;;;;11.18;5.53;;;;;;;2.05;100.00;100887.38;4975140;28;20031;-76
2023/04/14 00:50:02;;;;;;;13.23;5.53;;;;;;;1.89;100.00;100869.16;4974988;28;20027;-76
2023/04/14 00:52:29;;;;;;;11.20;5.50;;;;;;;1.97;100.00;100890.16;4974900;28;20027;-75
2023/04/14 00:54:55;;;;;;;10.77;5.63;;;;;;;1.92;100.00;100884.34;4973522;28;20035;-75
2023/04/14 00:57:20;;;;;;;10.68;5.63;;;;;;;1.83;100.00;100876.94;4974689;28;20507;-77
2023/04/14 00:59:46;;;;;;;12.43;5.65;;;;;;;1.88;100.00;100896.31;4974828;28;20030;-76
2023/04/14 01:02:11;;;;;;;11.93;5.45;;;;;;;1.72;100.00;100872.13;4974760;28;20027;-75
2023/04/14 01:04:37;;;;;;;14.82;6.13;;;;;;;1.73;100.00;100884.81;4974707;28;20054;-76
2023/04/14 01:07:03;;;;;;;14.90;5.97;;;;;;;1.81;100.00;100902.44;4974683;28;20033;-77
2023/04/14 01:09:28;;;;;;;11.07;5.95;;;;;;;1.58;100.00;100869.94;4974706;28;20026;-76
2023/04/14 01:12:10;;;;;;;12.38;6.07;;;;;;;1.37;100.00;100843.28;4974325;28;20110;-75
2023/04/14 01:15:02;;;;;;;12.65;6.82;;;;;;;1.71;100.00;100898.47;4974365;28;20558;-76
2023/04/14 01:17:42;;;;;;;13.02;6.40;;;;;;;1.71;100.00;100903.56;4973906;28;20084;-76
2023/04/14 01:20:28;;;;;;;11.95;6.90;;;;;;;1.68;100.00;100903.63;4974292;28;20177;-76
2023/04/14 01:23:00;;;;;;;12.48;6.40;;;;;;;1.66;100.00;100906.19;4974557;28;20054;-76
2023/04/14 01:26:03;;;;;;;12.57;6.18;;;;;;;1.66;100.00;100902.81;4974213;28;20084;-77
2023/04/14 01:28:41;;;;;;;15.00;6.68;;;;;;;1.45;100.00;100873.66;4974400;28;20059;-76
2023/04/14 01:31:27;;;;;;;15.68;6.63;;;;;;;1.60;100.00;100906.38;4974265;28;20085;-77
2023/04/14 01:34:05;;;;;;;14.00;6.78;;;;;;;1.61;100.00;100899.56;4974110;28;20089;-75
2023/04/14 01:36:41;;;;;;;14.25;6.70;;;;;;;1.61;100.00;100907.19;4974174;28;20027;-77
2023/04/14 01:39:13;;;;;;;12.32;6.68;;;;;;;1.56;100.00;100902.22;4973956;28;20110;-76
2023/04/14 01:41:43;;;;;;;13.00;6.63;;;;;;;1.46;100.00;100889.75;4974322;28;20062;-76
2023/04/14 01:44:11;;;;;;;12.93;6.47;;;;;;;1.45;100.00;100891.47;4974243;28;20027;-76
2023/04/14 01:46:38;;;;;;;13.85;6.13;;;;;;;1.34;100.00;100873.91;4973136;28;20453;-76
2023/04/14 01:49:04;;;;;;;13.65;6.60;;;;;;;1.24;100.00;100864.00;4973917;28;20428;-76
2023/04/14 01:51:32;;;;;;;13.05;5.35;;;;;;;1.49;100.00;100897.34;4974049;28;20105;-76
2023/04/14 01:53:59;;;;;;;12.85;5.43;;;;;;;1.08;100.00;100838.06;4973711;28;20026;-76
2023/04/14 01:56:26;;;;;;;14.30;6.20;;;;;;;1.46;100.00;100910.94;4973767;28;20027;-78
2023/04/14 01:58:55;;;;;;;12.50;5.10;;;;;;;1.46;100.00;100908.41;4973827;28;20388;-77
2023/04/14 02:01:21;;;;;;;12.30;5.40;;;;;;;1.54;100.00;100920.94;4973848;28;20035;-75
2023/04/14 02:03:48;;;;;;;10.48;4.80;;;;;;;1.52;100.00;100917.59;4973392;28;20053;-76
2023/04/14 02:06:16;;;;;;;13.35;5.38;;;;;;;1.51;100.00;100919.31;4973481;28;20058;-77
2023/04/14 02:08:42;;;;;;;11.07;4.60;;;;;;;1.54;100.00;100920.94;4973668;28;20069;-79
2023/04/14 02:11:11;;;;;;;11.60;5.03;;;;;;;1.51;100.00;100924.41;4973996;28;20033;-76
2023/04/14 02:13:39;;;;;;;10.02;4.55;;;;;;;1.48;100.00;100924.50;4973778;28;20034;-77
2023/04/14 02:16:08;;;;;;;12.02;5.47;;;;;;;1.38;100.00;100915.41;4973667;28;20373;-76
2023/04/14 02:18:36;;;;;;;15.32;5.68;;;;;;;1.38;100.00;100926.41;4973561;28;20031;-79
2023/04/14 02:21:03;;;;;;;10.85;5.57;;;;;;;1.18;100.00;100899.75;4973571;28;20444;-76
2023/04/14 02:23:28;;;;;;;11.02;5.20;;;;;;;1.30;100.00;100930.00;4973574;28;20023;-76
2023/04/14 02:26:03;;;;;;;10.18;5.50;;;;;;;1.06;100.00;100894.06;4973643;28;20034;-76
2023/04/14 02:28:32;;;;;;;9.52;5.07;;;;;;;1.20;100.00;100928.53;4972281;28;20038;-77
2023/04/14 02:31:03;;;;;;;14.35;5.28;;;;;;;1.01;100.00;100905.22;4973475;28;20039;-77
2023/04/14 02:33:33;;;;;;;8.88;4.85;;;;;;;1.06;100.00;100916.13;4973569;28;20026;-77
2023/04/14 02:36:05;;;;;;;12.35;5.32;;;;;;;0.84;100.00;100898.78;4973438;28;20458;-76
2023/04/14 02:39:03;;;;;;;12.40;5.13;;;;;;;1.11;100.00;100939.75;4973749;28;20035;-77
2023/04/14 02:41:30;;;;;;;12.85;5.70;;;;;;;1.05;100.00;100935.63;4895020;29;20482;-87
2023/04/14 02:44:20;;;;;;;12.48;5.60;;;;;;;0.99;100.00;100928.16;4895078;29;20478;-84
2023/04/14 02:47:02;;;;;;;10.20;5.22;;;;;;;1.00;100.00;100950.16;4894960;29;20153;-87
2023/04/14 02:49:33;;;;;;;12.25;5.80;;;;;;;0.98;100.00;100949.34;4894773;29;20115;-78
2023/04/14 02:51:59;;;;;;;15.10;6.18;;;;;;;0.97;100.00;100944.28;4894991;29;20036;-88
2023/04/14 02:54:25;;;;;;;12.05;5.55;;;;;;;0.75;100.00;100915.94;4895396;29;20064;-87
2023/04/14 02:56:51;;;;;;;8.95;5.32;;;;;;;0.94;100.00;100954.53;4896268;29;20085;-85
2023/04/14 02:59:18;;;;;;;13.38;6.15;;;;;;;0.93;100.00;100952.88;4899498;29;20491;-75
2023/04/14 03:01:45;;;;;;;10.07;5.95;;;;;;;0.78;100.00;100929.41;4898621;29;20190;-76
2023/04/14 03:04:12;;;;;;;11.40;5.78;;;;;;;0.90;100.00;100948.69;4898307;29;20052;-76
2023/04/14 03:06:38;;;;;;;9.57;5.43;;;;;;;0.88;100.00;100954.66;4898309;29;20430;-76
2023/04/14 03:09:03;;;;;;;11.77;6.15;;;;;;;0.88;100.00;100947.84;4898337;29;20160;-78
2023/04/14 03:11:31;;;;;;;13.00;5.70;;;;;;;0.83;100.00;100942.88;4898287;28;20048;-76
2023/04/14 03:13:58;;;;;;;11.73;5.80;;;;;;;0.76;100.00;100943.88;4898199;29;20036;-76
2023/04/14 03:16:25;;;;;;;11.85;5.57;;;;;;;0.66;100.00;100933.94;4898436;29;20079;-76
2023/04/14 03:18:53;;;;;;;12.43;6.25;;;;;;;0.69;100.00;100937.28;4971073;28;20042;-75
2023/04/14 03:21:20;;;;;;;13.32;6.18;;;;;;;0.72;100.00;100938.91;4976595;28;20042;-77
2023/04/14 03:23:47;;;;;;;11.75;5.95;;;;;;;0.69;100.00;100933.84;4976636;28;20031;-75
2023/04/14 03:26:17;;;;;;;13.20;6.15;;;;;;;0.56;100.00;100910.41;4976437;28;20424;-76
2023/04/14 03:28:46;;;;;;;10.73;6.07;;;;;;;0.61;100.00;100918.78;4976334;28;20130;-76
2023/04/14 03:31:15;;;;;;;10.88;5.88;;;;;;;0.78;100.00;100944.66;4976187;28;20030;-76
2023/04/14 03:33:42;;;;;;;10.35;5.78;;;;;;;0.79;100.00;100950.63;4976024;28;20027;-76
2023/04/14 03:36:10;;;;;;;15.68;6.50;;;;;;;0.62;100.00;100925.53;4976297;28;20027;-76
2023/04/14 03:38:36;;;;;;;14.20;6.88;;;;;;;0.54;100.00;100918.06;4976417;28;20400;-75
2023/04/14 03:41:05;;;;;;;14.30;6.82;;;;;;;0.75;100.00;100952.38;4976342;28;20023;-76
2023/04/14 03:43:32;;;;;;;11.77;5.82;;;;;;;0.72;100.00;100954.16;4976370;28;20479;-75
2023/04/14 03:45:58;;;;;;;14.35;5.97;;;;;;;0.74;100.00;100954.94;4976178;28;20038;-76
2023/04/14 03:48:25;;;;;;;13.07;5.60;;;;;;;0.61;100.00;100935.75;4975992;28;20027;-76
2023/04/14 03:50:52;;;;;;;12.98;5.68;;;;;;;0.72;100.00;100959.22;4975841;28;20465;-77
2023/04/14 03:53:20;;;;;;;10.25;5.38;;;;;;;0.62;100.00;100945.88;4975885;28;20050;-76
2023/04/14 03:55:47;;;;;;;14.57;5.40;;;;;;;0.55;100.00;100931.63;4975745;28;20030;-75
2023/04/14 03:58:14;;;;;;;11.52;5.38;;;;;;;0.69;100.00;100965.22;4975777;28;20042;-76
2023/04/14 04:00:40;;;;;;;12.35;4.93;;;;;;;0.56;100.00;100936.66;4975747;28;20380;-76
2023/04/14 04:03:06;;;;;;;11.35;4.78;;;;;;;0.43;100.00;100916.63;4975791;28;20038;-76
2023/04/14 04:05:38;;;;;;;11.55;4.80;;;;;;;0.55;100.00;100945.16;4975771;28;20047;-76
2023/04/14 04:08:04;;;;;;;;;;;;;;;0.68;100.00;100965.22;4975907;28;20039;-77
2023/04/14 04:10:33;;;;;;;11.13;5.25;;;;;;;0.52;100.00;100947.75;4975175;28;19917;-77
2023/04/14 04:13:01;;;;;;;12.63;5.07;;;;;;;0.62;100.00;100963.66;4975567;28;20034;-77
2023/04/14 04:15:27;;;;;;;10.45;5.00;;;;;;;0.52;100.00;100950.31;4974180;28;20406;-79
2023/04/14 04:17:54;;;;;;;14.13;5.72;;;;;;;0.59;100.00;100968.81;4975569;28;20027;-77
2023/04/14 04:20:22;;;;;;;16.88;5.60;;;;;;;0.57;100.00;100971.34;4974315;28;20357;-76
2023/04/14 04:22:50;;;;;;;12.65;5.43;;;;;;;0.53;100.00;100984.16;4975472;28;20031;-77
2023/04/14 04:25:16;;;;;;;14.10;7.10;;;;;;;0.44;100.00;100969.09;4975500;28;20031;-79
2023/04/14 04:27:42;;;;;;;15.57;5.55;;;;;;;0.32;100.00;100943.94;4975545;28;20030;-77
2023/04/14 04:30:09;;;;;;;10.13;4.90;;;;;;;0.41;100.00;100954.75;4975413;28;20477;-76
2023/04/14 04:32:36;;;;;;;15.65;6.20;;;;;;;0.60;100.00;100977.28;4975337;28;20125;-77
2023/04/14 04:35:03;;;;;;;12.40;6.38;;;;;;;0.57;100.00;100973.91;4975230;28;20042;-77
2023/04/14 04:37:29;;;;;;;11.90;5.82;;;;;;;0.59;100.00;100984.06;4975225;28;20034;-77
2023/04/14 04:39:57;;;;;;;12.82;5.43;;;;;;;0.55;100.00;100984.97;4975005;28;20105;-80
2023/04/14 04:42:23;;;;;;;12.07;6.22;;;;;;;0.54;100.00;100981.59;4974914;28;20055;-79
2023/04/14 04:44:48;;;;;;;12.63;6.40;;;;;;;0.58;100.00;100980.66;4975128;28;20519;-86
2023/04/14 04:47:14;;;;;;;13.18;6.80;;;;;;;0.57;100.00;100986.59;4974980;28;20527;-88
2023/04/14 04:49:39;;;;;;;14.30;6.90;;;;;;;0.52;100.00;100975.72;4974775;28;20041;-83
2023/04/14 04:52:05;;;;;;;16.35;7.13;;;;;;;0.55;100.00;100980.72;4974965;28;20046;-79
2023/04/14 04:54:30;;;;;;;15.10;6.53;;;;;;;0.59;100.00;100973.91;4974900;28;20027;-86
2023/04/14 04:56:57;;;;;;;14.80;6.55;;;;;;;0.59;100.00;100961.19;4974967;28;20027;-88
2023/04/14 04:59:23;;;;;;;14.35;6.25;;;;;;;0.73;100.00;100978.69;4974760;28;20051;-89
2023/04/14 05:01:48;;;;;;;13.35;5.78;;;;;;;0.54;100.00;100935.84;4957423;28;20043;-88
2023/04/14 05:04:13;;;;;;;12.57;6.00;;;;;;;0.85;100.00;100971.66;4974706;28;20031;-89
2023/04/14 05:06:39;;;;;;;11.57;6.30;;;;;;;0.71;100.00;100927.91;4974273;28;20046;-85
2023/04/14 05:09:04;;;;;;;12.90;6.28;;;;;;;1.09;100.00;100977.09;4974620;28;20134;-88
2023/04/14 05:11:31;;;;;;;15.40;6.75;;;;;;;1.14;100.00;100975.28;4974286;28;20055;-88
2023/04/14 05:13:56;;;;;;;14.57;5.57;;;;;;;1.18;100.00;100968.41;4974373;28;20457;-89
2023/04/14 05:16:22;;;;;;;13.40;7.07;;;;;;;1.26;100.00;100976.72;4974535;28;20106;-87
2023/04/14 05:18:48;;;;;;;14.75;6.45;;;;;;;1.20;100.00;100967.53;4974280;28;20031;-89
2023/04/14 05:21:14;;;;;;;13.63;5.70;;;;;;;1.07;100.00;100938.13;4973969;28;20077;-89
2023/04/14 05:23:42;;;;;;;16.45;6.15;;;;;;;1.36;100.00;100981.56;4974254;28;20027;-90
2023/04/14 05:26:08;;;;;;;12.38;5.82;;;;;;;1.39;100.00;100970.50;4974210;28;20055;-89
2023/04/14 05:28:34;;;;;;;13.20;5.72;;;;;;;1.25;100.00;100947.06;4974391;28;20105;-87
2023/04/14 05:31:00;;;;;;;11.32;5.80;;;;;;;1.45;100.00;100962.72;4974204;28;20477;-90
2023/04/14 05:33:25;;;;;;;14.35;5.93;;;;;;;1.53;100.00;100963.38;4974312;28;20095;-90
2023/04/14 05:35:51;;;;;;;14.00;5.57;;;;;;;1.67;100.00;100968.13;4974016;28;20098;-90
2023/04/14 05:38:17;;;;;;;12.90;5.95;;;;;;;1.75;100.00;100973.03;4974009;28;20031;-89
2023/04/14 05:40:43;;;;;;;16.60;6.03;;;;;;;1.84;100.00;100965.16;4973956;28;20023;-90
2023/04/14 05:43:08;;;;;;;12.63;6.45;;;;;;;1.90;100.00;100957.41;4974425;28;20034;-86
2023/04/14 05:45:34;;;;;;;13.95;6.60;;;;;;;2.05;100.00;100968.88;4974171;28;20027;-87
2023/04/14 05:47:59;;;;;;;15.30;6.40;;;;;;;2.17;100.00;100966.06;4973844;28;20074;-89
2023/04/14 05:50:24;;;;;;;11.13;5.90;;;;;;;2.34;100.00;100970.69;4973946;28;20034;-85
2023/04/14 05:52:50;;;;;;;16.48;7.15;;;;;;;2.88;100.00;100970.88;4975766;28;20045;-87
2023/04/14 05:55:16;;;;;;;13.98;6.53;;;;;;;4.31;100.00;100973.09;4976002;28;20027;-90
2023/04/14 05:57:42;;;;;;;18.00;5.50;;;;;;;5.97;100.00;100971.91;4977441;28;20065;-90
2023/04/14 06:00:09;;;;;;;11.43;4.55;;;;;;;7.25;91.69;100933.72;4979555;28;20101;-92
2023/04/14 06:02:35;;;;;;;12.57;4.70;;;;;;;8.69;83.58;100963.38;4981156;28;20022;-81
2023/04/14 06:05:00;;;;;;;11.60;4.30;;;;;;;9.61;77.12;100926.47;4978950;28;20138;-92
2023/04/14 06:07:26;;;;;;;10.00;4.25;;;;;;;10.56;71.17;100965.59;4959380;28;20101;-90
2023/04/14 06:09:52;;;;;;;11.45;3.67;;;;;;;11.31;69.27;100962.72;4976483;28;20078;-91
2023/04/14 06:12:18;;;;;;;11.38;3.90;;;;;;;12.14;65.02;100955.53;4976066;28;20058;-93
2023/04/14 06:14:43;;;;;;;10.80;4.40;;;;;;;12.66;62.95;100963.16;4978707;28;20034;-89
2023/04/14 06:17:09;;;;;;;9.23;4.03;;;;;;;13.39;58.99;100957.16;4975303;28;20117;-92
2023/04/14 06:19:34;;;;;;;10.27;3.90;;;;;;;13.70;57.53;100935.78;4977199;28;20029;-91
2023/04/14 06:22:00;;;;;;;9.70;3.50;;;;;;;14.33;56.06;100954.41;4975281;28;20038;-89
2023/04/14 06:24:25;;;;;;;8.20;3.67;;;;;;;14.91;54.43;100929.09;4974062;28;20030;-93
2023/04/14 06:26:51;;;;;;;11.32;3.97;;;;;;;15.48;51.88;100951.38;4975988;28;20042;-93
2023/04/14 06:29:17;;;;;;;12.52;3.50;;;;;;;15.15;51.66;100945.34;4977296;28;20034;-91
2023/04/14 06:31:42;;;;;;;7.38;3.22;;;;;;;13.73;53.77;100945.94;4976331;28;20022;-90
2023/04/14 06:34:07;;;;;;;10.18;3.40;;;;;;;13.00;56.07;100945.25;4981432;28;20442;-89
2023/04/14 06:36:33;;;;;;;6.50;2.83;;;;;;;12.51;56.76;100946.91;4980410;28;20027;-78
2023/04/14 06:38:59;;;;;;;9.95;3.58;;;;;;;11.66;59.92;100908.69;4977073;28;20118;-76
2023/04/14 06:41:24;;;;;;;8.18;3.88;;;;;;;12.84;59.51;100948.09;4978228;28;20173;-77
2023/04/14 06:43:50;;;;;;;11.43;4.75;;;;;;;13.48;55.60;100873.47;4978446;28;20027;-80
2023/04/14 06:46:16;;;;;;;11.25;3.33;;;;;;;14.95;53.17;100958.31;4978231;28;20106;-82
2023/04/14 06:48:41;;;;;;;7.85;3.65;;;;;;;15.62;51.37;100952.88;4978420;28;20603;-76
2023/04/14 06:51:09;;;;;;;7.53;3.20;;;;;;;16.06;48.84;100944.81;4977084;28;20163;-77
2023/04/14 06:53:34;;;;;;;9.57;3.53;;;;;;;16.38;47.78;100901.34;4978628;28;20091;-80
2023/04/14 06:56:01;;;;;;;8.93;3.38;;;;;;;16.71;46.92;100906.25;4977207;28;20027;-77
2023/04/14 06:58:27;;;;;;;8.95;3.42;;;;;;;17.18;46.88;100942.97;4978007;28;20158;-76
2023/04/14 07:01:00;;;;;;;8.40;3.30;;;;;;;17.69;45.04;100927.03;4977242;28;20086;-78
2023/04/14 07:03:27;;;;;;;7.95;3.50;;;;;;;17.81;44.22;100888.53;4978128;28;20073;-83
2023/04/14 07:05:52;;;;;;;8.82;3.78;;;;;;;18.10;43.82;100901.50;4977673;28;20460;-80
2023/04/14 07:08:19;;;;;;;8.13;3.47;;;;;;;18.19;42.85;100933.78;4977877;28;20039;-89
2023/04/14 07:10:45;;;;;;;9.68;3.30;;;;;;;16.71;45.36;100934.94;4977930;28;20528;-87
2023/04/14 07:13:11;;;;;;;14.45;3.90;;;;;;;14.66;48.69;100906.84;4979927;28;20066;-76
2023/04/14 07:15:36;;;;;;;9.40;3.60;;;;;;;13.24;53.36;100934.91;4979063;28;20027;-77
2023/04/14 07:18:02;;;;;;;8.98;3.47;;;;;;;11.88;57.75;100916.69;4977782;28;20027;-79
2023/04/14 07:20:28;;;;;;;8.02;3.50;;;;;;;10.94;61.32;100915.91;4976969;28;20047;-77
2023/04/14 07:22:54;;;;;;;10.13;3.75;;;;;;;10.45;64.18;100937.03;4977542;28;20015;-79
2023/04/14 07:25:20;;;;;;;9.23;3.63;;;;;;;9.74;66.53;100903.41;4976634;28;20043;-81
2023/04/14 07:27:45;;;;;;;10.60;4.15;;;;;;;9.52;69.06;100926.16;4977050;28;20038;-79
2023/04/14 07:30:11;;;;;;;6.82;3.63;;;;;;;9.20;69.93;100923.66;4976277;28;20392;-89
2023/04/14 07:32:37;;;;;;;7.93;3.63;;;;;;;8.81;72.57;100893.19;4977793;28;20047;-93
2023/04/14 07:35:03;;;;;;;7.95;3.70;;;;;;;8.67;73.76;100909.41;4945293;28;20030;-93
2023/04/14 07:37:29;;;;;;;13.07;4.15;;;;;;;8.60;74.87;100926.09;4977460;28;20085;-94
2023/04/14 07:39:54;;;;;;;10.32;4.20;;;;;;;8.58;76.25;100920.19;4978093;28;20027;-91
2023/04/14 07:42:20;;;;;;;9.57;4.68;;;;;;;8.55;76.24;100917.75;4976737;28;20477;-90
2023/04/14 07:44:45;;;;;;;11.60;4.22;;;;;;;8.33;76.12;100880.25;4974809;28;20031;-72
2023/04/14 07:47:10;;;;;;;8.75;3.80;;;;;;;8.54;75.55;100908.38;4976408;28;20081;-79
2023/04/14 07:49:36;;;;;;;9.55;4.38;;;;;;;8.34;75.42;100884.53;4976331;28;20070;-77
2023/04/14 07:52:01;;;;;;;10.50;3.30;;;;;;;8.55;77.26;100907.47;4976202;28;20027;-88
2023/04/14 07:54:27;;;;;;;10.95;3.60;;;;;;;8.46;76.85;100887.41;4976054;28;20025;-77
2023/04/14 07:56:52;;;;;;;9.10;3.72;;;;;;;8.44;77.39;100871.19;4975988;28;20495;-78
2023/04/14 07:59:18;;;;;;;9.80;4.00;;;;;;;8.59;77.27;100888.38;4975936;28;20022;-91
2023/04/14 08:01:43;;;;;;;6.68;2.75;;;;;;;8.62;77.20;100877.91;4976761;28;20035;-79
2023/04/14 08:04:09;;;;;;;7.85;3.28;;;;;;;8.64;75.54;100876.09;4976099;28;20027;-76
2023/04/14 08:06:35;;;;;;;9.23;3.00;;;;;;;8.73;76.32;100870.44;4975768;28;20049;-79
2023/04/14 08:09:00;;;;;;;8.63;2.83;;;;;;;9.02;76.24;100909.22;4975866;28;20102;-78
2023/04/14 08:11:26;;;;;;;6.45;2.20;;;;;;;9.01;75.03;100885.22;4989739;28;20034;-80
2023/04/14 08:13:51;;;;;;;6.38;2.50;;;;;;;9.18;73.45;100908.28;4994817;28;20482;-78
2023/04/14 08:16:18;;;;;;;7.18;2.75;;;;;;;9.30;74.04;100901.63;4995209;28;20033;-79
2023/04/14 08:18:43;;;;;;;8.65;3.35;;;;;;;9.38;73.06;100912.31;4995082;28;20365;-80
2023/04/14 08:21:09;;;;;;;9.63;2.80;;;;;;;9.52;73.12;100910.69;4994932;28;20457;-78
2023/04/14 08:23:35;;;;;;;8.32;2.72;;;;;;;9.55;72.24;100910.56;4994979;28;20030;-75
2023/04/14 08:26:00;;;;;;;7.68;2.88;;;;;;;9.53;72.04;100904.63;4994896;28;20030;-78
2023/04/14 08:28:27;;;;;;;9.05;3.20;;;;;;;9.49;71.82;100885.94;4977380;28;20061;-79
2023/04/14 08:30:53;;;;;;;7.50;3.17;;;;;;;9.62;72.49;100904.94;4984856;28;20034;-76
2023/04/14 08:33:18;;;;;;;10.57;3.15;;;;;;;9.65;70.04;100906.53;4976380;28;20045;-76
2023/04/14 08:35:43;;;;;;;8.02;2.63;;;;;;;9.45;71.30;100859.53;4975434;28;20022;-81
2023/04/14 08:38:09;;;;;;;7.60;3.03;;;;;;;9.84;70.47;100903.72;4975283;28;20034;-77
2023/04/14 08:40:37;;;;;;;9.85;3.17;;;;;;;9.92;71.45;100902.31;4975602;28;20023;-73
2023/04/14 08:43:04;;;;;;;6.57;2.60;;;;;;;10.00;70.64;100912.19;4975419;28;20034;-77
2023/04/14 08:45:30;;;;;;;6.32;2.90;;;;;;;10.09;69.97;100905.66;4975309;28;20077;-74
2023/04/14 08:47:57;;;;;;;10.30;3.00;;;;;;;9.93;69.32;100875.63;4975209;28;20027;-77
2023/04/14 08:50:25;;;;;;;7.45;2.50;;;;;;;9.96;67.19;100878.00;4975360;28;20107;-78
2023/04/14 08:52:58;;;;;;;6.60;2.40;;;;;;;10.17;68.67;100911.19;4957596;28;20030;-76
2023/04/14 08:55:24;;;;;;;6.85;2.40;;;;;;;10.17;67.62;100898.28;4974520;28;20033;-75
2023/04/14 08:57:50;;;;;;;6.50;2.20;;;;;;;10.28;67.11;100901.06;4974997;28;20109;-74
2023/04/14 09:00:17;;;;;;;8.32;2.20;;;;;;;10.29;67.50;100893.22;4974909;28;20054;-79
2023/04/14 09:02:43;;;;;;;7.80;2.20;;;;;;;10.43;65.62;100900.16;4975417;28;20038;-76
2023/04/14 09:05:10;;;;;;;8.57;2.38;;;;;;;10.45;65.02;100902.63;4975067;28;20034;-77
2023/04/14 09:07:36;;;;;;;8.93;2.50;;;;;;;10.37;67.72;100879.03;4975057;28;20037;-75
2023/04/14 09:10:02;;;;;;;5.88;1.73;;;;;;;10.47;66.01;100883.53;4974820;28;20031;-78
2023/04/14 09:12:29;;;;;;;5.82;1.67;;;;;;;10.65;63.46;100899.66;4974942;28;20423;-76
2023/04/14 09:14:57;;;;;;;6.57;1.80;;;;;;;10.70;62.15;100896.78;4974991;28;20409;-77
2023/04/14 09:17:25;;;;;;;6.32;2.05;;;;;;;10.76;62.89;100899.00;4975166;28;20061;-78
2023/04/14 09:19:50;;;;;;;4.75;1.50;;;;;;;10.78;62.80;100894.56;4974817;28;20388;-79
2023/04/14 09:22:17;;;;;;;5.70;1.67;;;;;;;10.65;62.89;100870.44;4973448;28;20037;-79
2023/04/14 09:24:42;;;;;;;5.47;2.05;;;;;;;10.86;62.10;100893.16;4974906;28;20069;-78
2023/04/14 09:27:08;;;;;;;7.88;2.10;;;;;;;10.97;62.56;100891.63;4957200;28;20429;-80
2023/04/14 09:29:36;;;;;;;4.45;1.92;;;;;;;10.73;62.12;100848.34;4974684;28;20034;-78
2023/04/14 09:32:03;;;;;;;6.18;2.25;;;;;;;10.94;63.65;100874.59;4974450;28;20030;-79
2023/04/14 09:34:29;;;;;;;8.48;2.10;;;;;;;11.04;61.96;100882.56;4974509;28;20380;-79
2023/04/14 09:37:05;;;;;;;7.55;2.08;;;;;;;11.11;62.28;100881.22;4974352;28;20026;-79
2023/04/14 09:39:31;;;;;;;8.80;1.80;;;;;;;11.01;61.35;100838.81;4974343;28;20057;-79
2023/04/14 09:41:58;;;;;;;4.22;1.65;;;;;;;11.34;62.33;100875.44;4974316;28;20055;-78
2023/04/14 09:44:23;;;;;;;6.28;1.80;;;;;;;11.37;61.44;100870.03;4974193;28;20058;-78
2023/04/14 09:47:06;;;;;;;6.47;1.90;;;;;;;11.00;60.48;100826.84;4974296;28;20431;-78
2023/04/14 09:49:32;;;;;;;6.07;1.60;;;;;;;11.32;60.70;100868.69;4974048;28;20488;-76
2023/04/14 09:52:07;;;;;;;6.97;1.90;;;;;;;11.21;60.54;100825.47;4973934;28;20113;-76
2023/04/14 09:54:32;;;;;;;7.00;1.80;;;;;;;11.39;59.08;100857.84;4974016;28;20031;-76
2023/04/14 09:56:58;;;;;;;4.45;1.58;;;;;;;11.34;58.95;100864.25;4974030;28;20530;-76
2023/04/14 09:59:37;;;;;;;5.35;1.48;;;;;;;11.55;60.05;100867.19;4974122;28;20022;-77
2023/04/14 10:02:05;;;;;;;4.13;1.55;;;;;;;11.88;59.01;100864.13;4973952;28;20055;-74
2023/04/14 10:04:31;;;;;;;5.47;1.50;;;;;;;12.03;58.48;100861.31;4973932;28;20415;-77
2023/04/14 10:06:58;;;;;;;5.03;1.40;;;;;;;12.04;59.60;100847.44;4971847;28;20078;-75
2023/04/14 10:09:26;;;;;;;6.05;1.83;;;;;;;12.18;57.89;100848.25;4973804;28;20034;-77
2023/04/14 10:12:09;;;;;;;8.85;1.77;;;;;;;12.34;57.55;100846.25;4974039;28;20019;-77
2023/04/14 10:14:35;;;;;;;5.50;1.52;;;;;;;12.44;56.61;100846.44;4973964;28;20481;-77
2023/04/14 10:17:01;;;;;;;5.50;1.85;;;;;;;12.41;58.55;100806.06;4974047;28;20046;-77
2023/04/14 10:19:27;;;;;;;6.15;1.67;;;;;;;12.72;56.08;100833.19;4973729;28;20476;-77
2023/04/14 10:21:53;;;;;;;5.60;2.10;;;;;;;12.60;56.02;100828.88;4973964;28;20055;-77
2023/04/14 10:24:20;;;;;;;6.18;1.88;;;;;;;12.62;54.39;100835.59;4973496;28;20034;-77
2023/04/14 10:26:48;;;;;;;6.43;1.73;;;;;;;12.62;56.69;100814.88;4973929;28;20031;-72
2023/04/14 10:29:15;;;;;;;6.95;1.80;;;;;;;12.71;55.93;100821.16;4991178;28;20026;-75
2023/04/14 10:31:45;;;;;;;7.47;1.95;;;;;;;12.62;54.73;100777.78;4993260;28;20041;-75
2023/04/14 10:34:12;;;;;;;5.00;1.77;;;;;;;12.79;53.87;100805.06;4993048;28;20022;-76
2023/04/14 10:36:39;;;;;;;5.35;1.80;;;;;;;12.76;53.70;100824.22;4993222;28;20023;-76
2023/04/14 10:39:06;;;;;;;5.85;1.45;;;;;;;12.81;54.83;100813.56;4992705;28;20037;-76
2023/04/14 10:41:46;;;;;;;4.82;1.90;;;;;;;13.07;54.53;100816.81;4993235;28;20026;-75
2023/04/14 10:44:24;;;;;;;4.20;1.60;;;;;;;13.03;53.24;100824.00;4993083;28;20037;-76
2023/04/14 10:46:50;;;;;;;3.33;1.40;;;;;;;12.77;53.28;100815.53;4992847;28;20273;-74
2023/04/14 10:49:15;;;;;;;6.07;1.48;;;;;;;12.70;53.21;100824.69;4993088;28;20033;-80
2023/04/14 10:51:42;;;;;;;7.22;1.50;;;;;;;12.95;54.98;100813.38;4992927;28;20027;-76
2023/04/14 10:54:18;;;;;;;4.93;1.45;;;;;;;13.16;53.08;100804.00;4993097;28;20376;-76
2023/04/14 10:57:10;;;;;;;4.72;1.80;;;;;;;13.45;52.93;100812.22;4993030;28;20105;-80
2023/04/14 10:59:39;;;;;;;5.32;1.58;;;;;;;13.56;51.02;100802.81;4993141;28;20030;-81
2023/04/14 11:02:20;;;;;;;4.10;1.45;;;;;;;13.54;51.09;100761.44;4975540;28;20034;-79
2023/04/14 11:05:07;;;;;;;8.02;1.67;;;;;;;13.91;53.01;100797.53;4993380;28;20033;-82
2023/04/14 11:07:46;;;;;;;5.97;1.55;;;;;;;13.88;52.01;100809.00;4993588;28;20042;-78
2023/04/14 11:10:23;;;;;;;4.72;1.50;;;;;;;13.84;50.95;100799.75;4992880;28;20061;-77
2023/04/14 11:13:02;;;;;;;5.97;1.83;;;;;;;13.87;51.68;100793.53;4992905;28;20105;-81
2023/04/14 11:15:46;;;;;;;6.75;1.80;;;;;;;13.85;51.20;100798.81;4993237;28;20069;-86
2023/04/14 11:18:33;;;;;;;5.25;1.60;;;;;;;13.92;50.88;100800.00;4993690;28;20391;-81
2023/04/14 11:21:07;;;;;;;4.75;1.60;;;;;;;13.72;49.16;100796.34;4995930;28;20057;-73
2023/04/14 11:23:34;;;;;;;6.00;1.58;;;;;;;13.47;49.31;100801.78;4983744;28;20119;-84
2023/04/14 11:25:59;;;;;;;5.40;1.40;;;;;;;13.24;51.28;100756.78;4982816;28;20392;-78